Weather at Centennial Airport

Public forecast

Using degrees Fahrenheit for public forecast. Weather courtesy of forecast.io.

Current aviation weather report (METAR) for Centennial Airport

Retrieved 2021/02/27 05:53 UTC (16 minutes ago):

KAPA 270553Z 10008G15KT 10SM FEW110 FEW220 M03/M12 A2971 RMK AO2 SLP078 T10331117 10022 21033 58003

Aviation forecast (TAF) for Centennial Airport

Retrieved 2021/02/27 06:36 UTC (0 seconds ago):

TAF KAPA 270530Z 2706/2806 16010KT P6SM FEW110 SCT150 SCT200 FM271100 32008KT P6SM FEW100 BKN150 FM271400 24006KT P6SM SCT090 BKN140 FM271800 28011KT P6SM FEW100 SCT150 FM272000 28012G20KT P6SM FEW090 SCT150 FM280000 28010KT P6SM FEW100 FEW220